Portada
METAR-TAF:

METAR-TAF

Aeroports :

Londres Southend, Anglaterra

latitud: 51-34N, longitud: 000-42E, altitud: 15 m

Observació

L'informe es va fer fa 34 minuts, a les 03:50 UTC
Vent 3 kt del Nord
Temperatura 6°C
Humitat 93%
Pressió 1020 hPa
Visibilitat: 9000 m
Escasses núvols a una alçada de 1800 ft
Núvols disperses a una alçada de 2400 ft
pluja

METAR: EGMC 260350Z 36003KT 9000 -RA FEW018 SCT024 06/05 Q1020

Hora: 04:24 (04:24 UTC)

Pronòstic

L'informe es va fer fa 2 hores i 32 minuts, a les 01:52 UTC
Pronòstic vàlid del 26 a les 03 UTC al 26 a les 12 UTC
Vent 6 kt del Nord/Nord-Oest
Visibilitat 10 km o més
Escasses núvols a una alçada de 3000 ft
Probabilitat 30% :
Temporalment
l' 26 a les 04 UTC al 26 a les 09 UTC
Visibilitat: 6000 m

TAF: EGMC 260152Z 2603/2612 34006KT 9999 FEW030 PROB30 TEMPO 2604/2609 6000

Observacions i pronòstics meteorològics de més de 4000 aeroports (METAR i TAF).

Les estacions disponibles són els punts grocs i vermells al mapa.

Posi el ratolí al punt desitjat per veure el nom de l'estació.

Feu clic per veure les observacions i els pronòstics meteorològics.

Per canviar el mapa: feu clic els botons verds amb una creu de color negre per apropar; al botó verd amb un guió per allunyar la imatge; o en les fletxes verdes per a mapes adjacents.


METAR-TAF: